sensor_id;sensor_type;location;lat;lon;timestamp;P1;durP1;ratioP1;P2;durP2;ratioP2
77022;SDS011;65952;51.440;-2.054;2023-09-19T00:01:28;11.75;;;3.45;;
77022;SDS011;65952;51.440;-2.054;2023-09-19T00:03:55;9.02;;;3.38;;
77022;SDS011;65952;51.440;-2.054;2023-09-19T00:06:22;9.90;;;2.88;;
77022;SDS011;65952;51.440;-2.054;2023-09-19T00:08:51;12.27;;;2.83;;
77022;SDS011;65952;51.440;-2.054;2023-09-19T00:11:16;10.25;;;3.00;;
77022;SDS011;65952;51.440;-2.054;2023-09-19T00:13:42;12.68;;;3.28;;
77022;SDS011;65952;51.440;-2.054;2023-09-19T00:16:09;9.95;;;3.10;;
77022;SDS011;65952;51.440;-2.054;2023-09-19T00:18:39;8.35;;;2.72;;
77022;SDS011;65952;51.440;-2.054;2023-09-19T00:21:04;8.20;;;2.65;;
77022;SDS011;65952;51.440;-2.054;2023-09-19T00:23:30;11.18;;;3.40;;
77022;SDS011;65952;51.440;-2.054;2023-09-19T00:25:59;13.35;;;3.17;;
77022;SDS011;65952;51.440;-2.054;2023-09-19T00:28:26;11.57;;;3.33;;
77022;SDS011;65952;51.440;-2.054;2023-09-19T00:30:51;7.88;;;2.75;;
77022;SDS011;65952;51.440;-2.054;2023-09-19T00:33:17;10.45;;;3.00;;
77022;SDS011;65952;51.440;-2.054;2023-09-19T00:35:53;12.35;;;2.88;;
77022;SDS011;65952;51.440;-2.054;2023-09-19T00:38:20;11.93;;;3.33;;
77022;SDS011;65952;51.440;-2.054;2023-09-19T00:40:48;7.82;;;3.10;;
77022;SDS011;65952;51.440;-2.054;2023-09-19T00:43:14;10.10;;;3.42;;
77022;SDS011;65952;51.440;-2.054;2023-09-19T00:45:43;13.05;;;2.97;;
77022;SDS011;65952;51.440;-2.054;2023-09-19T00:48:10;12.68;;;3.15;;
77022;SDS011;65952;51.440;-2.054;2023-09-19T00:50:36;13.57;;;3.20;;
77022;SDS011;65952;51.440;-2.054;2023-09-19T00:53:06;11.13;;;3.42;;
77022;SDS011;65952;51.440;-2.054;2023-09-19T00:55:33;11.73;;;3.33;;
77022;SDS011;65952;51.440;-2.054;2023-09-19T00:57:59;11.07;;;3.17;;
77022;SDS011;65952;51.440;-2.054;2023-09-19T01:00:26;10.02;;;3.40;;
77022;SDS011;65952;51.440;-2.054;2023-09-19T01:02:52;17.42;;;3.13;;
77022;SDS011;65952;51.440;-2.054;2023-09-19T01:05:17;10.30;;;2.95;;
77022;SDS011;65952;51.440;-2.054;2023-09-19T01:07:43;8.85;;;2.78;;
77022;SDS011;65952;51.440;-2.054;2023-09-19T01:10:15;10.93;;;3.55;;
77022;SDS011;65952;51.440;-2.054;2023-09-19T01:29:47;9.25;;;2.90;;
77022;SDS011;65952;51.440;-2.054;2023-09-19T01:32:17;10.70;;;3.15;;
77022;SDS011;65952;51.440;-2.054;2023-09-19T01:34:56;10.43;;;2.45;;
77022;SDS011;65952;51.440;-2.054;2023-09-19T01:37:24;12.10;;;2.88;;
77022;SDS011;65952;51.440;-2.054;2023-09-19T01:39:57;15.88;;;3.40;;
77022;SDS011;65952;51.440;-2.054;2023-09-19T01:42:43;14.73;;;3.10;;
77022;SDS011;65952;51.440;-2.054;2023-09-19T01:51:00;10.70;;;2.80;;
77022;SDS011;65952;51.440;-2.054;2023-09-19T01:53:35;13.73;;;2.85;;
77022;SDS011;65952;51.440;-2.054;2023-09-19T01:56:05;10.20;;;2.80;;
77022;SDS011;65952;51.440;-2.054;2023-09-19T01:58:39;17.27;;;3.03;;
77022;SDS011;65952;51.440;-2.054;2023-09-19T02:01:08;10.40;;;2.97;;
77022;SDS011;65952;51.440;-2.054;2023-09-19T02:03:38;11.52;;;2.70;;
77022;SDS011;65952;51.440;-2.054;2023-09-19T02:06:04;10.40;;;3.00;;
77022;SDS011;65952;51.440;-2.054;2023-09-19T02:08:30;10.45;;;2.83;;
77022;SDS011;65952;51.440;-2.054;2023-09-19T02:11:00;8.65;;;2.95;;
77022;SDS011;65952;51.440;-2.054;2023-09-19T02:13:25;9.13;;;2.92;;
77022;SDS011;65952;51.440;-2.054;2023-09-19T02:15:53;6.85;;;2.70;;
77022;SDS011;65952;51.440;-2.054;2023-09-19T02:18:18;13.70;;;2.80;;
77022;SDS011;65952;51.440;-2.054;2023-09-19T02:20:44;13.10;;;3.75;;
77022;SDS011;65952;51.440;-2.054;2023-09-19T02:23:10;8.52;;;2.60;;
77022;SDS011;65952;51.440;-2.054;2023-09-19T02:25:37;8.60;;;2.72;;
77022;SDS011;65952;51.440;-2.054;2023-09-19T02:28:05;11.13;;;2.85;;
77022;SDS011;65952;51.440;-2.054;2023-09-19T02:30:31;10.02;;;2.83;;
77022;SDS011;65952;51.440;-2.054;2023-09-19T02:32:57;8.68;;;2.70;;
77022;SDS011;65952;51.440;-2.054;2023-09-19T02:35:22;12.40;;;2.75;;
77022;SDS011;65952;51.440;-2.054;2023-09-19T02:37:48;12.20;;;3.10;;
77022;SDS011;65952;51.440;-2.054;2023-09-19T02:40:14;9.93;;;2.92;;
77022;SDS011;65952;51.440;-2.054;2023-09-19T02:42:54;7.35;;;2.83;;
77022;SDS011;65952;51.440;-2.054;2023-09-19T02:45:20;6.05;;;2.38;;
77022;SDS011;65952;51.440;-2.054;2023-09-19T02:47:47;5.95;;;2.28;;
77022;SDS011;65952;51.440;-2.054;2023-09-19T02:50:13;8.13;;;2.63;;
77022;SDS011;65952;51.440;-2.054;2023-09-19T02:52:43;11.95;;;2.88;;
77022;SDS011;65952;51.440;-2.054;2023-09-19T02:55:13;16.92;;;3.40;;
77022;SDS011;65952;51.440;-2.054;2023-09-19T02:57:39;8.68;;;2.70;;
77022;SDS011;65952;51.440;-2.054;2023-09-19T03:00:08;8.57;;;2.85;;
77022;SDS011;65952;51.440;-2.054;2023-09-19T03:02:35;5.15;;;2.40;;
77022;SDS011;65952;51.440;-2.054;2023-09-19T03:05:02;7.18;;;2.50;;
77022;SDS011;65952;51.440;-2.054;2023-09-19T03:07:28;7.03;;;3.13;;
77022;SDS011;65952;51.440;-2.054;2023-09-19T03:09:54;12.88;;;3.00;;
77022;SDS011;65952;51.440;-2.054;2023-09-19T03:12:20;9.02;;;2.50;;
77022;SDS011;65952;51.440;-2.054;2023-09-19T03:14:45;12.40;;;3.00;;
77022;SDS011;65952;51.440;-2.054;2023-09-19T03:17:11;10.85;;;2.53;;
77022;SDS011;65952;51.440;-2.054;2023-09-19T03:19:36;6.97;;;2.67;;
77022;SDS011;65952;51.440;-2.054;2023-09-19T03:22:04;9.85;;;3.13;;
77022;SDS011;65952;51.440;-2.054;2023-09-19T03:24:29;14.32;;;2.67;;
77022;SDS011;65952;51.440;-2.054;2023-09-19T03:26:56;7.18;;;2.58;;
77022;SDS011;65952;51.440;-2.054;2023-09-19T03:29:22;9.30;;;2.70;;
77022;SDS011;65952;51.440;-2.054;2023-09-19T03:31:47;10.90;;;3.00;;
77022;SDS011;65952;51.440;-2.054;2023-09-19T03:34:13;20.08;;;3.53;;
77022;SDS011;65952;51.440;-2.054;2023-09-19T03:36:38;10.15;;;2.67;;
77022;SDS011;65952;51.440;-2.054;2023-09-19T03:39:05;8.88;;;2.58;;
77022;SDS011;65952;51.440;-2.054;2023-09-19T03:41:31;6.05;;;2.60;;
77022;SDS011;65952;51.440;-2.054;2023-09-19T03:43:58;6.22;;;2.40;;
77022;SDS011;65952;51.440;-2.054;2023-09-19T03:46:23;11.90;;;3.00;;
77022;SDS011;65952;51.440;-2.054;2023-09-19T03:48:50;11.20;;;2.70;;
77022;SDS011;65952;51.440;-2.054;2023-09-19T03:51:15;11.07;;;2.50;;
77022;SDS011;65952;51.440;-2.054;2023-09-19T03:53:40;5.72;;;2.20;;
77022;SDS011;65952;51.440;-2.054;2023-09-19T03:56:06;6.97;;;2.65;;
77022;SDS011;65952;51.440;-2.054;2023-09-19T03:58:33;6.10;;;2.28;;
77022;SDS011;65952;51.440;-2.054;2023-09-19T04:01:03;6.22;;;2.30;;
77022;SDS011;65952;51.440;-2.054;2023-09-19T04:03:28;9.38;;;2.25;;
77022;SDS011;65952;51.440;-2.054;2023-09-19T04:06:00;4.70;;;2.08;;
77022;SDS011;65952;51.440;-2.054;2023-09-19T04:08:26;7.07;;;2.53;;
77022;SDS011;65952;51.440;-2.054;2023-09-19T04:10:51;10.13;;;2.22;;
77022;SDS011;65952;51.440;-2.054;2023-09-19T04:13:18;6.22;;;2.13;;
77022;SDS011;65952;51.440;-2.054;2023-09-19T04:15:43;7.80;;;2.08;;
77022;SDS011;65952;51.440;-2.054;2023-09-19T04:18:09;6.90;;;2.28;;
77022;SDS011;65952;51.440;-2.054;2023-09-19T04:20:34;7.30;;;2.00;;
77022;SDS011;65952;51.440;-2.054;2023-09-19T04:23:00;6.18;;;2.30;;
77022;SDS011;65952;51.440;-2.054;2023-09-19T04:25:25;5.65;;;1.98;;
77022;SDS011;65952;51.440;-2.054;2023-09-19T04:27:52;7.57;;;2.13;;
77022;SDS011;65952;51.440;-2.054;2023-09-19T04:30:17;10.20;;;2.40;;
77022;SDS011;65952;51.440;-2.054;2023-09-19T04:32:43;5.60;;;2.00;;
77022;SDS011;65952;51.440;-2.054;2023-09-19T04:35:08;8.05;;;2.20;;
77022;SDS011;65952;51.440;-2.054;2023-09-19T04:37:38;5.38;;;2.10;;
77022;SDS011;65952;51.440;-2.054;2023-09-19T04:40:08;5.63;;;2.13;;
77022;SDS011;65952;51.440;-2.054;2023-09-19T04:42:38;5.55;;;2.15;;
77022;SDS011;65952;51.440;-2.054;2023-09-19T04:45:06;6.10;;;2.10;;
77022;SDS011;65952;51.440;-2.054;2023-09-19T04:47:34;7.25;;;2.00;;
77022;SDS011;65952;51.440;-2.054;2023-09-19T04:50:00;4.47;;;2.10;;
77022;SDS011;65952;51.440;-2.054;2023-09-19T04:52:26;5.55;;;2.00;;
77022;SDS011;65952;51.440;-2.054;2023-09-19T04:54:51;6.13;;;2.17;;
77022;SDS011;65952;51.440;-2.054;2023-09-19T04:57:17;4.53;;;1.90;;
77022;SDS011;65952;51.440;-2.054;2023-09-19T04:59:42;6.95;;;2.30;;
77022;SDS011;65952;51.440;-2.054;2023-09-19T05:02:08;6.45;;;2.05;;
77022;SDS011;65952;51.440;-2.054;2023-09-19T05:04:33;7.75;;;2.10;;
77022;SDS011;65952;51.440;-2.054;2023-09-19T05:06:59;4.22;;;1.77;;
77022;SDS011;65952;51.440;-2.054;2023-09-19T05:09:26;5.00;;;1.77;;
77022;SDS011;65952;51.440;-2.054;2023-09-19T05:11:51;5.50;;;1.80;;
77022;SDS011;65952;51.440;-2.054;2023-09-19T05:14:17;4.70;;;1.70;;
77022;SDS011;65952;51.440;-2.054;2023-09-19T05:16:44;6.10;;;2.75;;
77022;SDS011;65952;51.440;-2.054;2023-09-19T05:19:09;4.50;;;1.90;;
77022;SDS011;65952;51.440;-2.054;2023-09-19T05:21:36;5.35;;;1.92;;
77022;SDS011;65952;51.440;-2.054;2023-09-19T05:24:04;4.40;;;1.70;;
77022;SDS011;65952;51.440;-2.054;2023-09-19T05:26:31;5.35;;;1.80;;
77022;SDS011;65952;51.440;-2.054;2023-09-19T05:29:00;6.43;;;2.10;;
77022;SDS011;65952;51.440;-2.054;2023-09-19T05:31:27;4.63;;;1.90;;
77022;SDS011;65952;51.440;-2.054;2023-09-19T05:33:52;6.35;;;1.90;;
77022;SDS011;65952;51.440;-2.054;2023-09-19T05:36:19;6.55;;;2.00;;
77022;SDS011;65952;51.440;-2.054;2023-09-19T05:38:45;4.88;;;2.05;;
77022;SDS011;65952;51.440;-2.054;2023-09-19T05:41:10;6.47;;;2.03;;
77022;SDS011;65952;51.440;-2.054;2023-09-19T05:43:39;5.05;;;2.38;;
77022;SDS011;65952;51.440;-2.054;2023-09-19T05:46:06;8.57;;;2.65;;
77022;SDS011;65952;51.440;-2.054;2023-09-19T05:48:33;5.68;;;2.10;;
77022;SDS011;65952;51.440;-2.054;2023-09-19T05:50:58;8.98;;;2.40;;
77022;SDS011;65952;51.440;-2.054;2023-09-19T05:53:24;8.45;;;3.38;;
77022;SDS011;65952;51.440;-2.054;2023-09-19T05:55:50;6.97;;;2.35;;
77022;SDS011;65952;51.440;-2.054;2023-09-19T05:58:18;8.43;;;2.35;;
77022;SDS011;65952;51.440;-2.054;2023-09-19T06:00:45;7.10;;;2.30;;
77022;SDS011;65952;51.440;-2.054;2023-09-19T06:03:12;6.95;;;2.45;;
77022;SDS011;65952;51.440;-2.054;2023-09-19T06:05:39;5.75;;;2.20;;
77022;SDS011;65952;51.440;-2.054;2023-09-19T06:08:06;12.68;;;2.53;;
77022;SDS011;65952;51.440;-2.054;2023-09-19T06:10:33;7.10;;;2.20;;
77022;SDS011;65952;51.440;-2.054;2023-09-19T06:12:59;7.38;;;2.40;;
77022;SDS011;65952;51.440;-2.054;2023-09-19T06:15:25;6.00;;;2.42;;
77022;SDS011;65952;51.440;-2.054;2023-09-19T06:17:52;10.80;;;2.67;;
77022;SDS011;65952;51.440;-2.054;2023-09-19T06:20:23;4.68;;;2.30;;
77022;SDS011;65952;51.440;-2.054;2023-09-19T06:22:50;5.20;;;2.05;;
77022;SDS011;65952;51.440;-2.054;2023-09-19T06:25:16;7.35;;;2.10;;
77022;SDS011;65952;51.440;-2.054;2023-09-19T06:27:45;6.45;;;2.20;;
77022;SDS011;65952;51.440;-2.054;2023-09-19T06:30:11;6.38;;;2.40;;
77022;SDS011;65952;51.440;-2.054;2023-09-19T06:32:37;6.78;;;2.30;;
77022;SDS011;65952;51.440;-2.054;2023-09-19T06:35:02;5.32;;;2.35;;
77022;SDS011;65952;51.440;-2.054;2023-09-19T06:37:32;6.50;;;3.08;;
77022;SDS011;65952;51.440;-2.054;2023-09-19T06:39:57;9.60;;;2.72;;
77022;SDS011;65952;51.440;-2.054;2023-09-19T06:42:23;6.85;;;2.90;;
77022;SDS011;65952;51.440;-2.054;2023-09-19T06:44:49;9.45;;;2.65;;
77022;SDS011;65952;51.440;-2.054;2023-09-19T06:47:14;6.13;;;2.30;;
77022;SDS011;65952;51.440;-2.054;2023-09-19T06:49:41;8.40;;;2.80;;
77022;SDS011;65952;51.440;-2.054;2023-09-19T06:52:09;7.70;;;2.90;;
77022;SDS011;65952;51.440;-2.054;2023-09-19T06:54:34;6.47;;;2.72;;
77022;SDS011;65952;51.440;-2.054;2023-09-19T06:57:01;8.40;;;2.60;;
77022;SDS011;65952;51.440;-2.054;2023-09-19T06:59:26;11.35;;;2.75;;
77022;SDS011;65952;51.440;-2.054;2023-09-19T07:01:52;10.57;;;3.42;;
77022;SDS011;65952;51.440;-2.054;2023-09-19T07:04:17;9.13;;;2.60;;
77022;SDS011;65952;51.440;-2.054;2023-09-19T07:06:44;8.63;;;3.55;;
77022;SDS011;65952;51.440;-2.054;2023-09-19T07:09:14;12.25;;;3.67;;
77022;SDS011;65952;51.440;-2.054;2023-09-19T07:11:40;11.45;;;4.38;;
77022;SDS011;65952;51.440;-2.054;2023-09-19T07:14:06;7.10;;;3.00;;
77022;SDS011;65952;51.440;-2.054;2023-09-19T07:16:31;9.73;;;3.45;;
77022;SDS011;65952;51.440;-2.054;2023-09-19T07:18:56;10.05;;;4.13;;
77022;SDS011;65952;51.440;-2.054;2023-09-19T07:21:22;9.23;;;3.25;;
77022;SDS011;65952;51.440;-2.054;2023-09-19T07:23:48;10.20;;;3.30;;
77022;SDS011;65952;51.440;-2.054;2023-09-19T07:26:15;7.70;;;2.70;;
77022;SDS011;65952;51.440;-2.054;2023-09-19T07:28:40;9.60;;;3.22;;
77022;SDS011;65952;51.440;-2.054;2023-09-19T07:31:06;13.57;;;3.30;;
77022;SDS011;65952;51.440;-2.054;2023-09-19T07:33:35;8.70;;;3.22;;
77022;SDS011;65952;51.440;-2.054;2023-09-19T07:36:01;10.27;;;4.40;;
77022;SDS011;65952;51.440;-2.054;2023-09-19T07:38:26;10.43;;;3.70;;
77022;SDS011;65952;51.440;-2.054;2023-09-19T07:40:52;10.52;;;4.03;;
77022;SDS011;65952;51.440;-2.054;2023-09-19T07:43:17;12.00;;;3.50;;
77022;SDS011;65952;51.440;-2.054;2023-09-19T07:45:43;9.70;;;3.70;;
77022;SDS011;65952;51.440;-2.054;2023-09-19T07:48:08;11.07;;;3.40;;
77022;SDS011;65952;51.440;-2.054;2023-09-19T07:50:39;10.38;;;3.38;;
77022;SDS011;65952;51.440;-2.054;2023-09-19T07:53:05;11.70;;;3.35;;
77022;SDS011;65952;51.440;-2.054;2023-09-19T07:55:32;9.75;;;3.30;;
77022;SDS011;65952;51.440;-2.054;2023-09-19T07:57:58;10.07;;;3.53;;
77022;SDS011;65952;51.440;-2.054;2023-09-19T08:00:24;9.70;;;3.42;;
77022;SDS011;65952;51.440;-2.054;2023-09-19T08:02:49;12.25;;;4.07;;
77022;SDS011;65952;51.440;-2.054;2023-09-19T08:05:17;13.77;;;3.90;;
77022;SDS011;65952;51.440;-2.054;2023-09-19T08:07:44;11.30;;;4.15;;
77022;SDS011;65952;51.440;-2.054;2023-09-19T08:10:17;13.85;;;3.90;;
77022;SDS011;65952;51.440;-2.054;2023-09-19T08:12:44;9.40;;;3.63;;
77022;SDS011;65952;51.440;-2.054;2023-09-19T08:15:14;16.42;;;3.83;;
77022;SDS011;65952;51.440;-2.054;2023-09-19T08:17:49;10.73;;;4.05;;
77022;SDS011;65952;51.440;-2.054;2023-09-19T08:20:15;9.05;;;3.67;;
77022;SDS011;65952;51.440;-2.054;2023-09-19T08:22:46;10.25;;;3.90;;
77022;SDS011;65952;51.440;-2.054;2023-09-19T08:25:14;12.50;;;4.13;;
77022;SDS011;65952;51.440;-2.054;2023-09-19T08:27:45;8.20;;;3.83;;
77022;SDS011;65952;51.440;-2.054;2023-09-19T08:30:17;10.95;;;4.28;;
77022;SDS011;65952;51.440;-2.054;2023-09-19T08:32:48;12.43;;;3.97;;
77022;SDS011;65952;51.440;-2.054;2023-09-19T08:35:14;14.65;;;4.18;;
77022;SDS011;65952;51.440;-2.054;2023-09-19T08:37:39;10.48;;;4.00;;
77022;SDS011;65952;51.440;-2.054;2023-09-19T08:40:05;10.70;;;3.75;;
77022;SDS011;65952;51.440;-2.054;2023-09-19T08:42:53;9.25;;;3.47;;
77022;SDS011;65952;51.440;-2.054;2023-09-19T08:45:20;9.52;;;4.20;;
77022;SDS011;65952;51.440;-2.054;2023-09-19T08:50:30;10.65;;;4.15;;
77022;SDS011;65952;51.440;-2.054;2023-09-19T08:52:56;9.40;;;3.60;;
77022;SDS011;65952;51.440;-2.054;2023-09-19T08:55:27;12.07;;;3.60;;
77022;SDS011;65952;51.440;-2.054;2023-09-19T08:57:57;10.43;;;4.00;;
77022;SDS011;65952;51.440;-2.054;2023-09-19T09:00:26;10.25;;;3.55;;
77022;SDS011;65952;51.440;-2.054;2023-09-19T09:02:52;9.50;;;3.72;;
77022;SDS011;65952;51.440;-2.054;2023-09-19T09:05:20;11.80;;;3.70;;
77022;SDS011;65952;51.440;-2.054;2023-09-19T09:07:47;11.73;;;3.85;;
77022;SDS011;65952;51.440;-2.054;2023-09-19T09:10:17;7.55;;;3.70;;
77022;SDS011;65952;51.440;-2.054;2023-09-19T09:12:48;10.18;;;3.85;;
77022;SDS011;65952;51.440;-2.054;2023-09-19T09:15:16;11.07;;;3.83;;
77022;SDS011;65952;51.440;-2.054;2023-09-19T09:17:46;8.23;;;3.67;;
77022;SDS011;65952;51.440;-2.054;2023-09-19T09:20:13;9.25;;;3.28;;
77022;SDS011;65952;51.440;-2.054;2023-09-19T09:22:38;11.02;;;3.70;;
77022;SDS011;65952;51.440;-2.054;2023-09-19T09:25:09;14.68;;;3.97;;
77022;SDS011;65952;51.440;-2.054;2023-09-19T09:27:34;8.45;;;3.38;;
77022;SDS011;65952;51.440;-2.054;2023-09-19T09:30:00;10.52;;;3.45;;
77022;SDS011;65952;51.440;-2.054;2023-09-19T09:32:26;11.82;;;3.67;;
77022;SDS011;65952;51.440;-2.054;2023-09-19T09:35:01;12.43;;;3.80;;
77022;SDS011;65952;51.440;-2.054;2023-09-19T09:37:34;13.32;;;3.50;;
77022;SDS011;65952;51.440;-2.054;2023-09-19T09:40:03;8.68;;;3.30;;
77022;SDS011;65952;51.440;-2.054;2023-09-19T09:42:55;10.85;;;3.83;;
77022;SDS011;65952;51.440;-2.054;2023-09-19T09:45:23;10.13;;;3.50;;
77022;SDS011;65952;51.440;-2.054;2023-09-19T09:47:58;12.45;;;3.40;;
77022;SDS011;65952;51.440;-2.054;2023-09-19T09:50:32;12.27;;;4.28;;
77022;SDS011;65952;51.440;-2.054;2023-09-19T09:53:21;8.88;;;3.50;;
77022;SDS011;65952;51.440;-2.054;2023-09-19T09:58:25;9.63;;;3.65;;
77022;SDS011;65952;51.440;-2.054;2023-09-19T10:00:54;8.23;;;3.22;;
77022;SDS011;65952;51.440;-2.054;2023-09-19T10:03:30;9.90;;;3.22;;
77022;SDS011;65952;51.440;-2.054;2023-09-19T10:05:57;9.57;;;3.67;;
77022;SDS011;65952;51.440;-2.054;2023-09-19T10:08:23;7.63;;;4.00;;
77022;SDS011;65952;51.440;-2.054;2023-09-19T10:10:49;7.07;;;3.15;;
77022;SDS011;65952;51.440;-2.054;2023-09-19T10:13:17;8.93;;;3.33;;
77022;SDS011;65952;51.440;-2.054;2023-09-19T10:15:49;8.75;;;3.72;;
77022;SDS011;65952;51.440;-2.054;2023-09-19T10:18:20;7.75;;;3.22;;
77022;SDS011;65952;51.440;-2.054;2023-09-19T10:20:47;9.90;;;3.42;;
77022;SDS011;65952;51.440;-2.054;2023-09-19T10:23:14;7.90;;;3.38;;
77022;SDS011;65952;51.440;-2.054;2023-09-19T10:25:40;6.90;;;3.10;;
77022;SDS011;65952;51.440;-2.054;2023-09-19T10:28:08;7.45;;;3.00;;
77022;SDS011;65952;51.440;-2.054;2023-09-19T10:30:45;10.40;;;3.13;;
77022;SDS011;65952;51.440;-2.054;2023-09-19T10:33:13;7.72;;;2.90;;
77022;SDS011;65952;51.440;-2.054;2023-09-19T10:35:42;10.05;;;3.17;;
77022;SDS011;65952;51.440;-2.054;2023-09-19T10:38:12;9.00;;;3.05;;
77022;SDS011;65952;51.440;-2.054;2023-09-19T10:40:39;8.73;;;3.03;;
77022;SDS011;65952;51.440;-2.054;2023-09-19T10:43:10;7.57;;;2.92;;
77022;SDS011;65952;51.440;-2.054;2023-09-19T10:45:46;7.75;;;3.30;;
77022;SDS011;65952;51.440;-2.054;2023-09-19T10:48:15;6.13;;;2.90;;
77022;SDS011;65952;51.440;-2.054;2023-09-19T10:51:06;5.88;;;3.28;;
77022;SDS011;65952;51.440;-2.054;2023-09-19T10:53:51;6.20;;;2.95;;
77022;SDS011;65952;51.440;-2.054;2023-09-19T10:56:31;7.75;;;3.35;;
77022;SDS011;65952;51.440;-2.054;2023-09-19T10:59:09;7.85;;;2.95;;
77022;SDS011;65952;51.440;-2.054;2023-09-19T11:02:15;6.38;;;2.92;;
77022;SDS011;65952;51.440;-2.054;2023-09-19T11:04:42;6.18;;;2.88;;
77022;SDS011;65952;51.440;-2.054;2023-09-19T11:09:45;10.02;;;3.30;;
77022;SDS011;65952;51.440;-2.054;2023-09-19T11:12:12;5.90;;;2.53;;
77022;SDS011;65952;51.440;-2.054;2023-09-19T11:15:06;5.95;;;2.78;;
77022;SDS011;65952;51.440;-2.054;2023-09-19T11:17:33;9.70;;;2.65;;
77022;SDS011;65952;51.440;-2.054;2023-09-19T11:30:42;5.63;;;2.80;;
77022;SDS011;65952;51.440;-2.054;2023-09-19T11:49:16;6.25;;;2.50;;
77022;SDS011;65952;51.440;-2.054;2023-09-19T11:51:46;5.65;;;2.78;;
77022;SDS011;65952;51.440;-2.054;2023-09-19T11:54:15;5.97;;;3.03;;
77022;SDS011;65952;51.440;-2.054;2023-09-19T11:56:44;5.13;;;2.63;;
77022;SDS011;65952;51.440;-2.054;2023-09-19T11:59:10;7.80;;;2.58;;
77022;SDS011;65952;51.440;-2.054;2023-09-19T12:01:37;5.65;;;2.90;;
77022;SDS011;65952;51.440;-2.054;2023-09-19T12:04:10;5.93;;;2.97;;
77022;SDS011;65952;51.440;-2.054;2023-09-19T12:06:37;6.22;;;2.70;;
77022;SDS011;65952;51.440;-2.054;2023-09-19T12:09:12;4.82;;;2.58;;
77022;SDS011;65952;51.440;-2.054;2023-09-19T12:14:10;5.80;;;2.30;;
77022;SDS011;65952;51.440;-2.054;2023-09-19T12:16:36;4.90;;;2.30;;
77022;SDS011;65952;51.440;-2.054;2023-09-19T12:19:18;5.20;;;2.17;;
77022;SDS011;65952;51.440;-2.054;2023-09-19T12:21:52;4.28;;;1.95;;
77022;SDS011;65952;51.440;-2.054;2023-09-19T12:24:19;3.15;;;1.80;;
77022;SDS011;65952;51.440;-2.054;2023-09-19T12:26:45;4.68;;;1.98;;
77022;SDS011;65952;51.440;-2.054;2023-09-19T12:29:17;4.85;;;2.20;;
77022;SDS011;65952;51.440;-2.054;2023-09-19T12:31:50;4.20;;;2.20;;
77022;SDS011;65952;51.440;-2.054;2023-09-19T12:34:28;4.63;;;2.25;;
77022;SDS011;65952;51.440;-2.054;2023-09-19T12:37:06;4.45;;;2.05;;
77022;SDS011;65952;51.440;-2.054;2023-09-19T12:39:41;6.03;;;2.58;;
77022;SDS011;65952;51.440;-2.054;2023-09-19T12:42:09;4.70;;;2.10;;
77022;SDS011;65952;51.440;-2.054;2023-09-19T12:44:36;5.40;;;2.40;;
77022;SDS011;65952;51.440;-2.054;2023-09-19T12:47:13;6.00;;;2.50;;
77022;SDS011;65952;51.440;-2.054;2023-09-19T12:52:38;3.75;;;2.00;;
77022;SDS011;65952;51.440;-2.054;2023-09-19T12:55:07;3.10;;;1.80;;
77022;SDS011;65952;51.440;-2.054;2023-09-19T12:57:34;4.90;;;2.13;;
77022;SDS011;65952;51.440;-2.054;2023-09-19T13:00:01;5.05;;;1.90;;
77022;SDS011;65952;51.440;-2.054;2023-09-19T13:02:36;5.45;;;1.90;;
77022;SDS011;65952;51.440;-2.054;2023-09-19T13:05:03;4.40;;;1.83;;
77022;SDS011;65952;51.440;-2.054;2023-09-19T13:10:14;4.68;;;2.05;;
77022;SDS011;65952;51.440;-2.054;2023-09-19T13:12:41;3.30;;;1.80;;
77022;SDS011;65952;51.440;-2.054;2023-09-19T13:15:12;5.00;;;1.83;;
77022;SDS011;65952;51.440;-2.054;2023-09-19T13:17:44;3.03;;;1.80;;
77022;SDS011;65952;51.440;-2.054;2023-09-19T13:20:24;5.20;;;2.13;;
77022;SDS011;65952;51.440;-2.054;2023-09-19T13:22:53;4.32;;;2.00;;
77022;SDS011;65952;51.440;-2.054;2023-09-19T13:25:23;4.53;;;1.92;;
77022;SDS011;65952;51.440;-2.054;2023-09-19T13:27:50;4.15;;;2.25;;
77022;SDS011;65952;51.440;-2.054;2023-09-19T13:30:18;4.43;;;1.98;;
77022;SDS011;65952;51.440;-2.054;2023-09-19T13:32:44;4.30;;;1.90;;
77022;SDS011;65952;51.440;-2.054;2023-09-19T13:35:12;5.53;;;2.17;;
77022;SDS011;65952;51.440;-2.054;2023-09-19T13:37:39;4.15;;;2.20;;
77022;SDS011;65952;51.440;-2.054;2023-09-19T13:40:08;4.28;;;2.35;;
77022;SDS011;65952;51.440;-2.054;2023-09-19T13:42:38;4.80;;;2.25;;
77022;SDS011;65952;51.440;-2.054;2023-09-19T13:45:05;4.60;;;2.13;;
77022;SDS011;65952;51.440;-2.054;2023-09-19T13:47:31;6.57;;;2.00;;
77022;SDS011;65952;51.440;-2.054;2023-09-19T13:49:57;3.97;;;1.75;;
77022;SDS011;65952;51.440;-2.054;2023-09-19T13:52:24;4.03;;;2.00;;
77022;SDS011;65952;51.440;-2.054;2023-09-19T13:54:53;5.35;;;1.98;;
77022;SDS011;65952;51.440;-2.054;2023-09-19T13:57:22;4.97;;;1.98;;
77022;SDS011;65952;51.440;-2.054;2023-09-19T13:59:48;5.68;;;2.28;;
77022;SDS011;65952;51.440;-2.054;2023-09-19T14:02:13;6.82;;;2.20;;
77022;SDS011;65952;51.440;-2.054;2023-09-19T14:04:39;4.65;;;1.80;;
77022;SDS011;65952;51.440;-2.054;2023-09-19T14:07:05;4.97;;;2.10;;
77022;SDS011;65952;51.440;-2.054;2023-09-19T14:09:32;5.40;;;2.40;;
77022;SDS011;65952;51.440;-2.054;2023-09-19T14:11:58;5.55;;;2.30;;
77022;SDS011;65952;51.440;-2.054;2023-09-19T14:14:24;5.15;;;2.20;;
77022;SDS011;65952;51.440;-2.054;2023-09-19T14:16:49;6.28;;;2.30;;
77022;SDS011;65952;51.440;-2.054;2023-09-19T14:19:17;6.88;;;2.65;;
77022;SDS011;65952;51.440;-2.054;2023-09-19T14:21:42;6.22;;;2.25;;
77022;SDS011;65952;51.440;-2.054;2023-09-19T14:24:08;7.95;;;2.50;;
77022;SDS011;65952;51.440;-2.054;2023-09-19T14:26:37;6.95;;;2.55;;
77022;SDS011;65952;51.440;-2.054;2023-09-19T14:29:03;6.95;;;2.70;;
77022;SDS011;65952;51.440;-2.054;2023-09-19T14:31:32;8.15;;;2.63;;
77022;SDS011;65952;51.440;-2.054;2023-09-19T14:33:58;8.35;;;2.50;;
77022;SDS011;65952;51.440;-2.054;2023-09-19T14:36:24;8.65;;;2.95;;
77022;SDS011;65952;51.440;-2.054;2023-09-19T14:38:52;6.55;;;2.65;;
77022;SDS011;65952;51.440;-2.054;2023-09-19T14:41:20;11.30;;;2.83;;
77022;SDS011;65952;51.440;-2.054;2023-09-19T14:43:47;6.75;;;2.63;;
77022;SDS011;65952;51.440;-2.054;2023-09-19T14:46:14;4.80;;;2.47;;
77022;SDS011;65952;51.440;-2.054;2023-09-19T14:48:39;9.43;;;3.03;;
77022;SDS011;65952;51.440;-2.054;2023-09-19T14:51:06;8.02;;;2.67;;
77022;SDS011;65952;51.440;-2.054;2023-09-19T14:53:34;7.50;;;2.30;;
77022;SDS011;65952;51.440;-2.054;2023-09-19T14:56:03;5.75;;;2.20;;
77022;SDS011;65952;51.440;-2.054;2023-09-19T14:58:30;5.25;;;2.40;;
77022;SDS011;65952;51.440;-2.054;2023-09-19T15:01:05;5.88;;;2.53;;
77022;SDS011;65952;51.440;-2.054;2023-09-19T15:03:33;7.20;;;2.50;;
77022;SDS011;65952;51.440;-2.054;2023-09-19T15:06:01;6.55;;;2.72;;
77022;SDS011;65952;51.440;-2.054;2023-09-19T15:08:30;6.85;;;2.33;;
77022;SDS011;65952;51.440;-2.054;2023-09-19T15:10:56;5.20;;;2.50;;
77022;SDS011;65952;51.440;-2.054;2023-09-19T15:13:23;4.18;;;2.13;;
77022;SDS011;65952;51.440;-2.054;2023-09-19T15:15:57;3.22;;;2.00;;
77022;SDS011;65952;51.440;-2.054;2023-09-19T15:18:24;5.55;;;2.25;;
77022;SDS011;65952;51.440;-2.054;2023-09-19T15:20:49;3.58;;;1.80;;
77022;SDS011;65952;51.440;-2.054;2023-09-19T15:23:15;4.13;;;2.28;;
77022;SDS011;65952;51.440;-2.054;2023-09-19T15:25:47;7.55;;;2.10;;
77022;SDS011;65952;51.440;-2.054;2023-09-19T15:28:13;4.20;;;1.90;;
77022;SDS011;65952;51.440;-2.054;2023-09-19T15:30:39;4.43;;;2.00;;
77022;SDS011;65952;51.440;-2.054;2023-09-19T15:33:04;3.70;;;1.90;;
77022;SDS011;65952;51.440;-2.054;2023-09-19T15:35:30;4.25;;;1.80;;
77022;SDS011;65952;51.440;-2.054;2023-09-19T15:37:55;3.90;;;2.10;;
77022;SDS011;65952;51.440;-2.054;2023-09-19T15:40:21;3.05;;;1.70;;
77022;SDS011;65952;51.440;-2.054;2023-09-19T15:42:49;3.55;;;1.70;;